Time;durP1;ratioP1;P1;durP2;ratioP2;P2;SDS_P1;SDS_P2;PMS_P1;PMS_P2;Temp;Humidity;BMP_temperature;BMP_pressure;BME280_temperature;BME280_humidity;BME280_pressure;Samples;Min_cycle;Max_cycle;Signal;HPM_P1;HPM_P2
2023/12/20 00:01:49;;;;;;;4.23;2.97;;;6.10;99.90;;;;;;7873451;28;20204;-86
2023/12/20 00:05:38;;;;;;;3.10;2.80;;;6.00;99.90;;;;;;7836992;28;20204;-86
2023/12/20 00:09:23;;;;;;;3.97;2.90;;;6.10;99.90;;;;;;7839690;28;20197;-86
2023/12/20 00:13:09;;;;;;;4.57;2.90;;;6.00;99.90;;;;;;7855251;28;20346;-85
2023/12/20 00:16:55;;;;;;;3.67;2.80;;;6.00;99.90;;;;;;7838767;28;20226;-84
2023/12/20 00:20:40;;;;;;;3.50;2.90;;;6.00;99.90;;;;;;7839603;28;20225;-85
2023/12/20 00:24:26;;;;;;;3.40;2.83;;;5.90;99.90;;;;;;7867908;28;20268;-85
2023/12/20 00:28:12;;;;;;;5.83;3.17;;;5.90;99.90;;;;;;7867243;28;20216;-86
2023/12/20 00:31:57;;;;;;;5.57;3.03;;;5.80;99.90;;;;;;7856625;28;20561;-85
2023/12/20 00:35:43;;;;;;;3.20;2.20;;;5.90;99.90;;;;;;7836990;28;20769;-85
2023/12/20 00:39:29;;;;;;;3.90;2.80;;;5.80;99.90;;;;;;7836783;28;20671;-85
2023/12/20 00:43:14;;;;;;;4.00;2.80;;;5.80;99.90;;;;;;7837061;28;20676;-86
2023/12/20 00:47:00;;;;;;;3.70;2.73;;;5.70;99.90;;;;;;7836782;28;20210;-86
2023/12/20 00:50:46;;;;;;;2.87;2.40;;;5.80;99.90;;;;;;7837152;28;20186;-86
2023/12/20 00:54:32;;;;;;;4.53;2.80;;;5.80;99.90;;;;;;7836377;28;20185;-85
2023/12/20 00:58:17;;;;;;;2.73;2.40;;;5.60;99.90;;;;;;7842869;28;20710;-86
2023/12/20 01:02:03;;;;;;;4.97;2.73;;;5.70;99.90;;;;;;7840125;28;20198;-85
2023/12/20 01:05:49;;;;;;;2.60;2.10;;;5.70;99.90;;;;;;7835878;28;20197;-85
2023/12/20 01:09:34;;;;;;;3.27;2.23;;;5.50;99.90;;;;;;7837345;28;20197;-86
2023/12/20 01:13:20;;;;;;;2.60;2.13;;;5.50;99.90;;;;;;7836142;28;20186;-86
2023/12/20 01:17:05;;;;;;;2.43;1.90;;;5.50;99.90;;;;;;7836897;28;20202;-85
2023/12/20 01:20:51;;;;;;;2.47;2.00;;;5.60;99.90;;;;;;7854641;28;20283;-85
2023/12/20 01:24:37;;;;;;;2.30;1.80;;;5.50;99.90;;;;;;7861167;28;20189;-86
2023/12/20 01:28:22;;;;;;;2.27;1.80;;;5.50;99.90;;;;;;7835618;28;20193;-85
2023/12/20 01:32:08;;;;;;;2.40;1.80;;;5.50;99.90;;;;;;7836764;28;20615;-85
2023/12/20 01:35:54;;;;;;;2.50;1.57;;;5.40;99.90;;;;;;7846785;28;20742;-86
2023/12/20 01:39:39;;;;;;;2.37;1.70;;;5.40;99.90;;;;;;7868155;28;20188;-85
2023/12/20 01:43:25;;;;;;;2.20;1.70;;;5.30;99.90;;;;;;7866551;28;20550;-86
2023/12/20 01:47:10;;;;;;;1.70;1.47;;;5.40;99.90;;;;;;7861355;28;20569;-86
2023/12/20 01:50:56;;;;;;;2.63;1.70;;;5.30;99.90;;;;;;7836643;28;20243;-85
2023/12/20 01:54:42;;;;;;;1.73;1.40;;;5.30;99.90;;;;;;7835324;28;20277;-85
2023/12/20 01:58:28;;;;;;;1.00;1.00;;;5.40;99.90;;;;;;7838424;28;20249;-85
2023/12/20 02:02:14;;;;;;;1.97;1.40;;;5.30;99.90;;;;;;7843192;28;20210;-85
2023/12/20 02:06:00;;;;;;;2.00;1.40;;;5.30;99.90;;;;;;7848758;28;20284;-86
2023/12/20 02:09:46;;;;;;;4.00;1.27;;;5.30;99.90;;;;;;7866449;28;20181;-86
2023/12/20 02:13:32;;;;;;;1.80;1.30;;;5.20;99.90;;;;;;7843808;28;20396;-85
2023/12/20 02:17:17;;;;;;;1.40;1.30;;;5.40;99.90;;;;;;7840854;28;20216;-86
2023/12/20 02:21:05;;;;;;;1.70;1.30;;;5.30;99.90;;;;;;7856841;28;20299;-84
2023/12/20 02:24:51;;;;;;;1.63;1.50;;;5.40;99.90;;;;;;7840704;28;20243;-85
2023/12/20 02:28:36;;;;;;;1.23;1.00;;;5.30;99.90;;;;;;7840749;28;20275;-85
2023/12/20 02:32:25;;;;;;;1.43;1.10;;;5.20;99.90;;;;;;7847556;28;20177;-85
2023/12/20 02:36:11;;;;;;;0.90;0.90;;;5.10;99.90;;;;;;7870807;28;20219;-86
2023/12/20 02:39:57;;;;;;;1.47;1.23;;;5.20;99.90;;;;;;7871380;28;20181;-86
2023/12/20 02:43:42;;;;;;;1.03;0.93;;;5.10;99.90;;;;;;7864703;28;20182;-86
2023/12/20 02:47:29;;;;;;;1.10;1.00;;;5.20;99.90;;;;;;7845755;28;20193;-85
2023/12/20 02:51:15;;;;;;;0.90;0.90;;;5.20;99.90;;;;;;7872126;28;20169;-85
2023/12/20 02:55:00;;;;;;;2.20;1.00;;;5.20;99.90;;;;;;7862423;28;20189;-85
2023/12/20 02:58:46;;;;;;;1.27;1.10;;;5.10;99.90;;;;;;7870851;28;20694;-86
2023/12/20 03:02:32;;;;;;;0.87;0.80;;;5.20;99.90;;;;;;7871981;28;20198;-86
2023/12/20 03:06:20;;;;;;;1.23;0.93;;;5.10;99.90;;;;;;7858598;28;20218;-85
2023/12/20 03:10:08;;;;;;;0.83;0.83;;;5.10;99.90;;;;;;7840356;28;20839;-86
2023/12/20 03:13:53;;;;;;;2.00;1.00;;;5.10;99.90;;;;;;7870593;28;20326;-88
2023/12/20 03:17:39;;;;;;;1.00;0.67;;;5.00;99.90;;;;;;7858241;28;20201;-85
2023/12/20 03:21:25;;;;;;;0.80;0.80;;;4.90;99.90;;;;;;7864872;28;20717;-86
2023/12/20 03:25:10;;;;;;;1.00;0.90;;;4.90;99.90;;;;;;7839849;28;20178;-85
2023/12/20 03:28:56;;;;;;;0.87;0.80;;;4.90;99.90;;;;;;7861566;28;20161;-85
2023/12/20 03:32:42;;;;;;;0.80;0.80;;;4.90;99.90;;;;;;7870047;28;20212;-85
2023/12/20 03:36:27;;;;;;;1.07;0.97;;;4.90;99.90;;;;;;7861525;28;20659;-86
2023/12/20 03:40:13;;;;;;;0.83;0.83;;;4.90;99.90;;;;;;7862833;28;20251;-85
2023/12/20 03:43:58;;;;;;;0.90;0.90;;;4.90;99.90;;;;;;7871368;28;20208;-88
2023/12/20 03:47:44;;;;;;;1.03;0.93;;;4.90;99.90;;;;;;7871872;28;20447;-86
2023/12/20 03:51:30;;;;;;;0.83;0.80;;;4.80;99.90;;;;;;7851956;28;20181;-85
2023/12/20 03:55:15;;;;;;;1.00;0.90;;;4.70;99.90;;;;;;7905093;28;20292;-87
2023/12/20 03:59:01;;;;;;;1.00;0.90;;;4.70;99.90;;;;;;7894097;28;20209;-84
2023/12/20 04:02:46;;;;;;;1.03;0.93;;;4.80;99.90;;;;;;7869347;28;20204;-85
2023/12/20 04:06:32;;;;;;;0.97;0.83;;;4.80;99.90;;;;;;7855494;28;20237;-85
2023/12/20 04:10:18;;;;;;;1.00;0.90;;;4.80;99.90;;;;;;7841041;28;20182;-85
2023/12/20 04:14:07;;;;;;;1.27;0.80;;;4.80;99.90;;;;;;7866751;28;20220;-87
2023/12/20 04:17:52;;;;;;;1.30;0.87;;;4.70;99.90;;;;;;7845865;28;20558;-86
2023/12/20 04:21:38;;;;;;;0.97;0.73;;;4.80;99.90;;;;;;7848465;28;20197;-85
2023/12/20 04:25:23;;;;;;;0.97;0.83;;;4.70;99.90;;;;;;7868064;28;20708;-85
2023/12/20 04:29:09;;;;;;;0.93;0.90;;;4.80;99.90;;;;;;7846032;28;20651;-85
2023/12/20 04:32:55;;;;;;;1.30;0.90;;;4.80;99.90;;;;;;7845148;28;20188;-85
2023/12/20 04:36:40;;;;;;;1.40;0.90;;;4.90;99.90;;;;;;7877477;28;20296;-86
2023/12/20 04:40:26;;;;;;;1.00;0.80;;;4.90;99.90;;;;;;7864527;28;20204;-86
2023/12/20 04:44:11;;;;;;;1.00;0.90;;;4.90;99.90;;;;;;7836707;28;20225;-84
2023/12/20 04:47:57;;;;;;;1.07;0.90;;;4.90;99.90;;;;;;7857888;28;20255;-87
2023/12/20 04:51:43;;;;;;;1.00;0.90;;;4.90;99.90;;;;;;7843407;28;20194;-85
2023/12/20 04:55:29;;;;;;;1.13;1.00;;;4.90;99.90;;;;;;7845401;28;20554;-86
2023/12/20 04:59:15;;;;;;;1.03;0.90;;;5.10;99.90;;;;;;7836581;28;20305;-85
2023/12/20 05:03:00;;;;;;;1.00;0.90;;;4.80;99.90;;;;;;7838356;28;20233;-85
2023/12/20 05:06:46;;;;;;;1.80;1.00;;;4.80;99.90;;;;;;7857190;28;20691;-85
2023/12/20 05:10:31;;;;;;;2.03;0.93;;;5.00;99.90;;;;;;7849653;28;20272;-86
2023/12/20 05:14:17;;;;;;;1.33;1.00;;;4.90;99.90;;;;;;7856055;28;20189;-86
2023/12/20 05:18:03;;;;;;;3.07;1.10;;;4.90;99.90;;;;;;7861266;28;20217;-85
2023/12/20 05:21:49;;;;;;;0.90;0.90;;;4.80;99.90;;;;;;7863680;28;20205;-84
2023/12/20 05:25:34;;;;;;;1.00;0.90;;;4.90;99.90;;;;;;7860071;28;20194;-85
2023/12/20 05:29:22;;;;;;;0.90;0.83;;;5.00;99.90;;;;;;7858756;28;20894;-84
2023/12/20 05:33:09;;;;;;;0.97;0.90;;;4.90;99.90;;;;;;7862857;28;20176;-85
2023/12/20 05:36:54;;;;;;;2.33;1.07;;;4.90;99.90;;;;;;7871647;28;20197;-85
2023/12/20 05:40:42;;;;;;;1.10;1.00;;;4.90;99.90;;;;;;7857732;28;20192;-86
2023/12/20 05:44:39;;;;;;;1.20;1.10;;;4.90;99.90;;;;;;7870999;28;20173;-85
2023/12/20 05:48:24;;;;;;;1.30;1.20;;;4.90;99.90;;;;;;7852854;22;20236;-85
2023/12/20 05:52:10;;;;;;;2.00;1.33;;;4.90;99.90;;;;;;7835178;28;20263;-85
2023/12/20 05:55:56;;;;;;;1.10;1.00;;;4.90;99.90;;;;;;7840829;28;20198;-86
2023/12/20 05:59:41;;;;;;;1.40;1.00;;;5.00;99.90;;;;;;7820402;28;20269;-86
2023/12/20 06:03:27;;;;;;;1.73;1.20;;;4.90;99.90;;;;;;7826616;28;20202;-84
2023/12/20 06:07:13;;;;;;;1.03;1.00;;;4.80;99.90;;;;;;7839619;28;20636;-85
2023/12/20 06:10:59;;;;;;;1.30;0.93;;;4.90;99.90;;;;;;7841038;28;20641;-86
2023/12/20 06:14:44;;;;;;;1.20;1.10;;;5.00;99.90;;;;;;7840792;28;20340;-85
2023/12/20 06:18:30;;;;;;;1.30;1.20;;;4.90;99.90;;;;;;7835978;28;20198;-85
2023/12/20 06:22:16;;;;;;;2.13;1.20;;;4.90;99.90;;;;;;7842515;28;20233;-85
2023/12/20 06:26:01;;;;;;;1.10;1.00;;;4.90;99.90;;;;;;7829607;28;20196;-84
2023/12/20 06:29:47;;;;;;;2.90;1.30;;;4.90;99.90;;;;;;7818142;28;20174;-86
2023/12/20 06:33:33;;;;;;;1.30;1.20;;;5.00;99.90;;;;;;7840061;28;20189;-86
2023/12/20 06:37:19;;;;;;;1.33;1.23;;;5.00;99.90;;;;;;7833637;28;20214;-86
2023/12/20 06:41:04;;;;;;;1.40;1.30;;;5.00;99.90;;;;;;7840036;28;20217;-86
2023/12/20 06:44:50;;;;;;;2.57;1.67;;;5.00;99.90;;;;;;7840635;28;20217;-85
2023/12/20 06:48:36;;;;;;;2.10;1.90;;;5.00;99.90;;;;;;7840869;28;20286;-86
2023/12/20 06:52:22;;;;;;;2.53;2.23;;;5.00;99.90;;;;;;7838039;28;20273;-86
2023/12/20 06:56:10;;;;;;;2.40;2.20;;;4.90;99.90;;;;;;7840069;28;20344;-86
2023/12/20 06:59:55;;;;;;;2.63;2.30;;;4.90;99.90;;;;;;7843708;28;20554;-85
2023/12/20 07:03:41;;;;;;;2.57;2.30;;;5.00;99.90;;;;;;7829092;28;20287;-87
2023/12/20 07:07:27;;;;;;;3.10;2.80;;;4.90;99.90;;;;;;7813005;28;20278;-86
2023/12/20 07:11:12;;;;;;;2.77;2.50;;;4.90;99.90;;;;;;7810592;28;20203;-86
2023/12/20 07:14:58;;;;;;;10.20;3.57;;;4.90;99.90;;;;;;7822041;28;20189;-86
2023/12/20 07:18:44;;;;;;;3.97;3.27;;;4.90;99.90;;;;;;7832643;28;20178;-86
2023/12/20 07:22:33;;;;;;;4.30;2.90;;;4.90;99.90;;;;;;7810918;28;20206;-86
2023/12/20 07:26:19;;;;;;;4.57;3.90;;;4.90;99.90;;;;;;7809133;28;20302;-86
2023/12/20 07:30:05;;;;;;;7.20;4.40;;;5.00;99.90;;;;;;7818256;28;20191;-87
2023/12/20 07:33:51;;;;;;;5.10;4.13;;;4.90;99.90;;;;;;7839861;28;20178;-86
2023/12/20 07:37:36;;;;;;;8.00;4.00;;;4.90;99.90;;;;;;7836806;28;20256;-86
2023/12/20 07:41:23;;;;;;;4.47;3.67;;;4.90;99.90;;;;;;7840811;28;20200;-86
2023/12/20 07:45:10;;;;;;;7.27;5.47;;;4.80;99.90;;;;;;7839074;28;20175;-86
2023/12/20 07:48:56;;;;;;;4.60;3.93;;;4.90;99.90;;;;;;7856536;28;20190;-85
2023/12/20 07:52:41;;;;;;;7.07;3.50;;;4.90;99.90;;;;;;7855832;28;20276;-86
2023/12/20 07:56:27;;;;;;;4.53;3.77;;;4.90;99.90;;;;;;7844705;28;20301;-86
2023/12/20 08:00:13;;;;;;;4.67;4.07;;;4.90;99.90;;;;;;7819189;28;20210;-87
2023/12/20 08:03:59;;;;;;;4.73;3.53;;;4.90;99.90;;;;;;7849918;28;20189;-86
2023/12/20 08:07:45;;;;;;;4.40;3.60;;;4.90;99.90;;;;;;7817289;28;20198;-86
2023/12/20 08:11:30;;;;;;;3.77;3.37;;;4.90;99.90;;;;;;7831959;28;20178;-87
2023/12/20 08:15:16;;;;;;;3.97;3.57;;;4.90;99.90;;;;;;7832210;28;20198;-87
2023/12/20 08:19:03;;;;;;;4.43;3.43;;;5.00;99.90;;;;;;7821496;28;20722;-85
2023/12/20 08:22:48;;;;;;;5.20;3.50;;;4.90;99.90;;;;;;7841376;28;20201;-86
2023/12/20 08:26:34;;;;;;;4.57;3.43;;;4.90;99.90;;;;;;7870845;28;20202;-87
2023/12/20 08:30:21;;;;;;;4.40;3.70;;;4.90;99.90;;;;;;7877246;28;20166;-87
2023/12/20 08:34:07;;;;;;;4.20;3.20;;;4.80;99.90;;;;;;7844683;28;20223;-85
2023/12/20 08:37:52;;;;;;;7.40;3.00;;;4.80;99.90;;;;;;7837441;28;20198;-86
2023/12/20 08:41:38;;;;;;;3.83;2.67;;;4.90;99.90;;;;;;7837963;28;20201;-86
2023/12/20 08:45:24;;;;;;;3.47;2.37;;;4.90;99.90;;;;;;7835676;28;20208;-85
2023/12/20 08:49:11;;;;;;;5.57;2.40;;;4.90;99.90;;;;;;7837326;28;20181;-86
2023/12/20 08:52:56;;;;;;;5.97;2.13;;;5.00;99.90;;;;;;7806516;28;20277;-86
2023/12/20 08:56:42;;;;;;;4.53;2.00;;;4.90;99.90;;;;;;7805590;28;20198;-86
2023/12/20 09:00:28;;;;;;;3.80;1.60;;;5.10;99.90;;;;;;7828017;28;20197;-86
2023/12/20 09:04:13;;;;;;;2.20;1.60;;;5.10;99.90;;;;;;7852723;28;20185;-86
2023/12/20 09:07:59;;;;;;;6.00;2.20;;;5.10;99.90;;;;;;7851085;28;20576;-85
2023/12/20 09:11:48;;;;;;;3.83;1.90;;;5.10;99.90;;;;;;7831336;28;20833;-86
2023/12/20 09:15:34;;;;;;;1.90;1.40;;;5.10;99.90;;;;;;7826999;28;20202;-85
2023/12/20 09:19:20;;;;;;;3.57;1.30;;;5.00;99.90;;;;;;7849634;28;20186;-87
2023/12/20 09:23:05;;;;;;;4.23;1.33;;;5.00;99.90;;;;;;7824996;28;20198;-87
2023/12/20 09:26:51;;;;;;;1.80;1.20;;;5.10;99.90;;;;;;7806058;28;20265;-86
2023/12/20 09:30:39;;;;;;;1.47;1.00;;;5.10;99.90;;;;;;7841258;28;20185;-85
2023/12/20 09:34:25;;;;;;;3.20;1.20;;;5.30;99.90;;;;;;7835040;28;20177;-87
2023/12/20 09:38:12;;;;;;;4.80;1.10;;;5.20;99.90;;;;;;7826941;28;20202;-86
2023/12/20 09:42:06;;;;;;;4.83;1.20;;;5.20;99.90;;;;;;7835715;28;20289;-87
2023/12/20 09:46:03;;;;;;;4.57;1.90;;;5.20;99.90;;;;;;7836281;28;20209;-87
2023/12/20 09:49:58;;;;;;;3.87;1.70;;;5.20;99.90;;;;;;7834110;28;20639;-88
2023/12/20 09:53:48;;;;;;;3.77;1.50;;;5.20;99.90;;;;;;7825588;28;20324;-87
2023/12/20 09:57:34;;;;;;;6.10;1.70;;;5.10;99.90;;;;;;7821255;28;20203;-87
2023/12/20 10:01:21;;;;;;;5.03;1.60;;;5.20;99.90;;;;;;7805585;28;20695;-87
2023/12/20 10:05:11;;;;;;;2.93;1.37;;;5.20;99.90;;;;;;7805708;28;20175;-88
2023/12/20 10:08:56;;;;;;;4.37;1.77;;;5.30;99.90;;;;;;7822399;28;20225;-87
2023/12/20 10:13:05;;;;;;;3.60;1.60;;;5.30;99.90;;;;;;7820948;28;20249;-88
2023/12/20 10:16:51;;;;;;;5.67;1.67;;;5.30;99.90;;;;;;7820798;28;20289;-88
2023/12/20 10:20:37;;;;;;;3.13;1.40;;;5.30;99.90;;;;;;7808856;28;20790;-87
2023/12/20 10:24:23;;;;;;;2.67;1.50;;;5.40;99.90;;;;;;7826626;28;20179;-87
2023/12/20 10:28:22;;;;;;;5.77;1.57;;;5.50;99.90;;;;;;7826396;28;20253;-88
2023/12/20 10:32:27;;;;;;;5.43;1.40;;;5.50;99.90;;;;;;7825937;28;20178;-88
2023/12/20 10:36:13;;;;;;;2.37;1.50;;;5.60;99.90;;;;;;7823688;28;20255;-88
2023/12/20 10:40:02;;;;;;;3.43;1.50;;;5.60;99.90;;;;;;7839873;28;20186;-87
2023/12/20 10:43:47;;;;;;;1.83;1.10;;;5.60;99.90;;;;;;7841446;28;20671;-88
2023/12/20 10:47:35;;;;;;;1.83;1.33;;;5.50;99.90;;;;;;7839616;28;20275;-87
2023/12/20 10:51:22;;;;;;;6.63;1.33;;;5.60;99.90;;;;;;7837632;28;20209;-88
2023/12/20 10:55:08;;;;;;;7.10;2.10;;;5.60;99.90;;;;;;7831444;28;20555;-88
2023/12/20 10:58:56;;;;;;;6.03;1.57;;;5.70;99.90;;;;;;7839386;28;20201;-89
2023/12/20 11:02:45;;;;;;;5.53;1.40;;;5.70;99.90;;;;;;7839333;28;20198;-87
2023/12/20 11:06:47;;;;;;;3.23;1.10;;;5.80;99.90;;;;;;7839228;28;20210;-87
2023/12/20 11:11:09;;;;;;;3.47;1.80;;;5.80;99.90;;;;;;7840064;28;20274;-88
2023/12/20 11:14:57;;;;;;;2.73;1.17;;;5.80;99.90;;;;;;7837149;28;20189;-86
2023/12/20 11:18:45;;;;;;;6.63;1.80;;;5.80;99.90;;;;;;7841266;28;20201;-88
2023/12/20 11:22:32;;;;;;;5.17;1.60;;;5.80;99.90;;;;;;7839655;28;20222;-87
2023/12/20 11:26:26;;;;;;;4.77;1.63;;;5.70;99.90;;;;;;7841074;28;20200;-87
2023/12/20 11:30:14;;;;;;;7.10;1.67;;;5.70;99.90;;;;;;7838860;28;20227;-87
2023/12/20 11:34:14;;;;;;;4.10;1.60;;;5.70;99.90;;;;;;7839275;28;20247;-87
2023/12/20 11:38:00;;;;;;;3.77;1.60;;;5.80;99.90;;;;;;7839964;28;20210;-86
2023/12/20 11:41:48;;;;;;;5.10;1.60;;;5.70;99.90;;;;;;7840871;28;20732;-87
2023/12/20 11:45:34;;;;;;;4.10;1.33;;;5.70;99.90;;;;;;7840291;28;20202;-87
2023/12/20 11:49:23;;;;;;;3.50;2.13;;;5.70;99.90;;;;;;7839408;28;20208;-87
2023/12/20 11:53:10;;;;;;;7.10;2.43;;;5.70;99.90;;;;;;7838842;28;20648;-88
2023/12/20 11:56:56;;;;;;;4.20;1.53;;;5.60;99.90;;;;;;7838643;28;20612;-88
2023/12/20 12:00:43;;;;;;;3.23;1.70;;;5.70;99.90;;;;;;7840190;28;20202;-87
2023/12/20 12:04:28;;;;;;;4.00;1.70;;;5.60;99.90;;;;;;7829626;28;20206;-86
2023/12/20 12:08:14;;;;;;;4.00;1.67;;;5.90;99.90;;;;;;7821672;28;20205;-87
2023/12/20 12:12:00;;;;;;;3.77;1.97;;;6.00;99.90;;;;;;7844961;28;20189;-85
2023/12/20 12:15:48;;;;;;;5.60;1.80;;;6.10;99.90;;;;;;7829316;28;20202;-86
2023/12/20 12:19:36;;;;;;;5.00;1.57;;;6.10;99.90;;;;;;7840614;28;20186;-86
2023/12/20 12:23:25;;;;;;;7.13;1.30;;;6.20;99.90;;;;;;7835083;28;20206;-87
2023/12/20 12:27:15;;;;;;;4.90;2.10;;;6.20;99.90;;;;;;7824774;28;20214;-88
2023/12/20 12:31:01;;;;;;;6.13;1.67;;;6.20;99.90;;;;;;7845783;28;20180;-86
2023/12/20 12:34:47;;;;;;;2.80;1.77;;;6.20;99.90;;;;;;7834683;28;20185;-86
2023/12/20 12:38:34;;;;;;;4.87;1.83;;;6.30;99.90;;;;;;7845123;28;20204;-87
2023/12/20 12:42:20;;;;;;;7.80;1.73;;;6.30;99.90;;;;;;7831914;28;20190;-87
2023/12/20 12:46:06;;;;;;;5.10;1.73;;;6.40;99.90;;;;;;7855881;28;20243;-87
2023/12/20 12:49:53;;;;;;;4.97;2.00;;;6.40;99.90;;;;;;7894637;28;20249;-87
2023/12/20 12:53:39;;;;;;;3.87;1.53;;;6.40;99.90;;;;;;7890120;28;20178;-86
2023/12/20 12:57:25;;;;;;;5.07;1.50;;;6.50;99.90;;;;;;7855250;28;20625;-86
2023/12/20 13:01:10;;;;;;;3.63;1.83;;;6.30;99.90;;;;;;7853322;28;20205;-86
2023/12/20 13:04:56;;;;;;;5.23;1.60;;;6.40;99.90;;;;;;7820980;28;20187;-85
2023/12/20 13:08:42;;;;;;;3.83;1.43;;;6.30;99.90;;;;;;7829425;28;20690;-85
2023/12/20 13:12:27;;;;;;;3.33;1.63;;;6.40;99.90;;;;;;7852816;28;20185;-86
2023/12/20 13:16:13;;;;;;;3.67;1.93;;;6.40;99.90;;;;;;7839934;28;20207;-85
2023/12/20 13:19:59;;;;;;;4.27;1.50;;;6.30;99.90;;;;;;7815133;28;20190;-85
2023/12/20 13:23:45;;;;;;;2.70;1.47;;;6.40;99.90;;;;;;7814490;28;20199;-87
2023/12/20 13:27:31;;;;;;;4.90;3.40;;;6.40;99.90;;;;;;7824395;28;20202;-85
2023/12/20 13:31:16;;;;;;;3.43;1.40;;;6.30;99.90;;;;;;7834496;28;20186;-85
2023/12/20 13:35:04;;;;;;;6.17;2.77;;;6.40;99.90;;;;;;7827951;28;20563;-86
2023/12/20 13:38:50;;;;;;;7.97;2.10;;;6.40;99.90;;;;;;7836140;28;20690;-85
2023/12/20 13:42:35;;;;;;;4.63;1.40;;;6.40;99.90;;;;;;7808421;28;20563;-85
2023/12/20 13:46:21;;;;;;;4.03;1.50;;;6.30;99.90;;;;;;7830154;28;20698;-86
2023/12/20 13:50:07;;;;;;;3.37;1.90;;;6.40;99.90;;;;;;7843976;28;20243;-86
2023/12/20 13:53:52;;;;;;;5.17;2.00;;;6.40;99.90;;;;;;7837685;28;20706;-85
2023/12/20 13:57:39;;;;;;;5.30;1.70;;;6.40;99.90;;;;;;7836388;28;20285;-84
2023/12/20 14:01:26;;;;;;;5.20;1.90;;;6.40;99.90;;;;;;7827323;28;20751;-86
2023/12/20 14:05:14;;;;;;;5.43;1.70;;;6.40;99.90;;;;;;7834768;28;20205;-86
2023/12/20 14:09:03;;;;;;;7.70;1.40;;;6.30;99.90;;;;;;7838606;28;20186;-86
2023/12/20 14:12:49;;;;;;;5.03;2.43;;;6.40;99.90;;;;;;7832988;28;20182;-85
2023/12/20 14:16:35;;;;;;;5.40;1.87;;;6.30;99.90;;;;;;7834106;28;20340;-85
2023/12/20 14:20:20;;;;;;;2.20;1.30;;;6.30;99.90;;;;;;7827900;28;20187;-86
2023/12/20 14:24:06;;;;;;;2.13;1.40;;;6.20;99.90;;;;;;7818055;28;20186;-86
2023/12/20 14:27:52;;;;;;;5.10;1.70;;;6.20;99.90;;;;;;7812620;28;20222;-85
2023/12/20 14:31:38;;;;;;;5.53;2.00;;;6.20;99.90;;;;;;7820339;28;20175;-86
2023/12/20 14:35:24;;;;;;;3.47;1.37;;;6.20;99.90;;;;;;7817428;28;20190;-86
2023/12/20 14:39:12;;;;;;;4.53;1.70;;;6.20;99.90;;;;;;7842750;28;20242;-85
2023/12/20 14:42:59;;;;;;;3.50;1.07;;;6.30;99.90;;;;;;7818692;28;20245;-86
2023/12/20 14:46:44;;;;;;;3.27;1.37;;;6.20;99.90;;;;;;7840651;28;20603;-86
2023/12/20 14:50:30;;;;;;;3.67;1.40;;;6.20;99.90;;;;;;7857139;28;20201;-86
2023/12/20 14:54:16;;;;;;;4.97;2.10;;;6.30;99.90;;;;;;7840869;28;20205;-86
2023/12/20 14:58:01;;;;;;;3.20;1.40;;;6.20;99.90;;;;;;7838770;28;20201;-86
2023/12/20 15:01:47;;;;;;;3.10;1.60;;;6.20;99.90;;;;;;7840739;28;20198;-86
2023/12/20 15:05:33;;;;;;;1.77;1.10;;;6.20;99.90;;;;;;7823593;28;20202;-86
2023/12/20 15:09:18;;;;;;;2.77;1.23;;;6.20;99.90;;;;;;7809718;28;20240;-86
2023/12/20 15:13:04;;;;;;;4.63;1.10;;;6.20;99.90;;;;;;7836531;28;20265;-86
2023/12/20 15:16:50;;;;;;;2.23;1.10;;;6.20;99.90;;;;;;7853815;28;20208;-85
2023/12/20 15:20:36;;;;;;;2.17;1.20;;;6.10;99.90;;;;;;7838304;28;20180;-86
2023/12/20 15:24:28;;;;;;;6.50;1.50;;;6.10;99.90;;;;;;7820686;28;20201;-86
2023/12/20 15:28:14;;;;;;;2.03;1.80;;;6.10;99.90;;;;;;7810411;28;20195;-86
2023/12/20 15:31:59;;;;;;;4.07;1.43;;;6.10;99.90;;;;;;7826533;28;20189;-86
2023/12/20 15:35:45;;;;;;;4.70;1.40;;;6.10;99.90;;;;;;7839685;28;20206;-86
2023/12/20 15:39:31;;;;;;;3.73;1.67;;;6.00;99.90;;;;;;7835139;28;20178;-86
2023/12/20 15:43:16;;;;;;;3.20;1.70;;;6.10;99.90;;;;;;7831506;28;20194;-87
2023/12/20 15:47:02;;;;;;;5.10;1.70;;;6.10;99.90;;;;;;7816354;28;20292;-86
2023/12/20 15:50:48;;;;;;;3.37;2.00;;;6.10;99.90;;;;;;7842878;28;20260;-86
2023/12/20 15:54:33;;;;;;;7.57;2.43;;;6.10;99.90;;;;;;7827772;28;20186;-87
2023/12/20 15:58:19;;;;;;;2.10;1.33;;;6.20;99.90;;;;;;7822562;28;20201;-86
2023/12/20 16:02:05;;;;;;;2.60;1.23;;;6.00;99.90;;;;;;7825537;28;20210;-85
2023/12/20 16:05:50;;;;;;;2.80;1.50;;;6.00;99.90;;;;;;7823619;28;20205;-86
2023/12/20 16:09:36;;;;;;;2.20;1.10;;;6.00;99.90;;;;;;7828822;28;20547;-87
2023/12/20 16:13:21;;;;;;;6.33;1.93;;;6.00;99.90;;;;;;7837359;28;20174;-86
2023/12/20 16:17:07;;;;;;;3.47;1.90;;;6.00;99.90;;;;;;7818738;28;20239;-86
2023/12/20 16:20:53;;;;;;;2.53;1.30;;;6.10;99.90;;;;;;7823578;28;20231;-86
2023/12/20 16:24:41;;;;;;;2.80;1.70;;;6.00;99.90;;;;;;7830242;28;20171;-87
2023/12/20 16:28:27;;;;;;;2.80;1.20;;;5.90;99.90;;;;;;7829922;28;20682;-86
2023/12/20 16:32:14;;;;;;;2.77;1.60;;;5.90;99.90;;;;;;7827261;28;20660;-87
2023/12/20 16:36:01;;;;;;;3.60;1.40;;;5.90;99.90;;;;;;7831702;28;20207;-86
2023/12/20 16:39:47;;;;;;;2.70;1.60;;;5.90;99.90;;;;;;7836877;28;20185;-85
2023/12/20 16:43:32;;;;;;;2.97;1.50;;;6.00;99.90;;;;;;7822084;28;20195;-85
2023/12/20 16:47:18;;;;;;;3.80;1.70;;;5.90;99.90;;;;;;7827368;28;20218;-85
2023/12/20 16:51:04;;;;;;;4.57;1.73;;;5.90;99.90;;;;;;7808746;28;20183;-85
2023/12/20 16:54:49;;;;;;;2.23;1.50;;;5.90;99.90;;;;;;7826907;28;20576;-85
2023/12/20 16:58:35;;;;;;;3.03;1.67;;;5.80;99.90;;;;;;7828300;28;20695;-85
2023/12/20 17:02:21;;;;;;;3.63;1.80;;;5.80;99.90;;;;;;7824460;28;20198;-85
2023/12/20 17:06:08;;;;;;;5.97;2.63;;;5.90;99.90;;;;;;7835181;28;20300;-85
2023/12/20 17:09:53;;;;;;;4.63;2.00;;;5.80;99.90;;;;;;7866475;28;20265;-85
2023/12/20 17:13:39;;;;;;;4.30;1.33;;;5.80;99.90;;;;;;7878981;28;20245;-85
2023/12/20 17:17:25;;;;;;;2.47;1.77;;;5.80;99.90;;;;;;7845856;28;20209;-85
2023/12/20 17:21:10;;;;;;;2.23;1.30;;;5.80;99.90;;;;;;7833486;28;20683;-85
2023/12/20 17:24:58;;;;;;;4.17;1.67;;;5.80;99.90;;;;;;7834898;28;20598;-85
2023/12/20 17:28:44;;;;;;;3.00;1.67;;;5.80;99.90;;;;;;7823193;28;20202;-84
2023/12/20 17:32:30;;;;;;;3.53;2.00;;;5.70;99.90;;;;;;7817340;28;20265;-85
2023/12/20 17:36:16;;;;;;;3.47;1.53;;;5.70;99.90;;;;;;7820433;28;20210;-84
2023/12/20 17:40:02;;;;;;;3.43;1.80;;;5.60;99.90;;;;;;7804354;28;20210;-85
2023/12/20 17:43:48;;;;;;;3.73;1.87;;;5.60;99.90;;;;;;7805721;28;20207;-84
2023/12/20 17:47:33;;;;;;;4.43;1.60;;;5.60;99.90;;;;;;7803967;28;20305;-86
2023/12/20 17:51:19;;;;;;;5.93;2.03;;;5.60;99.90;;;;;;7803445;28;20645;-86
2023/12/20 17:55:04;;;;;;;3.73;1.80;;;5.70;99.90;;;;;;7823674;28;20181;-84
2023/12/20 17:58:53;;;;;;;5.30;2.43;;;5.70;99.90;;;;;;7836357;28;20245;-84
2023/12/20 18:02:39;;;;;;;3.43;1.87;;;5.70;99.90;;;;;;7809233;28;20292;-85
2023/12/20 18:06:25;;;;;;;5.87;2.43;;;5.70;99.90;;;;;;7814161;28;20233;-85
2023/12/20 18:10:12;;;;;;;8.10;2.57;;;5.60;99.90;;;;;;7818553;28;20186;-85
2023/12/20 18:13:58;;;;;;;7.07;2.47;;;5.70;99.90;;;;;;7824911;28;20232;-85
2023/12/20 18:17:43;;;;;;;5.10;2.60;;;5.60;99.90;;;;;;7834763;28;20198;-85
2023/12/20 18:21:29;;;;;;;5.40;2.63;;;5.70;99.90;;;;;;7834024;28;20198;-85
2023/12/20 18:25:16;;;;;;;4.07;2.30;;;5.60;99.90;;;;;;7829967;28;20171;-84
2023/12/20 18:29:02;;;;;;;17.37;7.43;;;5.50;99.90;;;;;;7830661;28;20556;-85
2023/12/20 18:32:48;;;;;;;8.30;4.70;;;5.50;99.90;;;;;;7835022;28;20178;-84
2023/12/20 18:36:34;;;;;;;7.77;4.53;;;5.50;99.90;;;;;;7828003;28;20242;-85
2023/12/20 18:40:20;;;;;;;18.00;9.80;;;5.50;99.90;;;;;;7852531;28;20729;-84
2023/12/20 18:44:05;;;;;;;14.37;7.77;;;5.60;99.90;;;;;;7821491;28;20561;-85
2023/12/20 18:47:53;;;;;;;8.37;4.27;;;5.60;99.90;;;;;;7829465;28;20209;-85
2023/12/20 18:51:38;;;;;;;8.50;3.77;;;5.70;99.90;;;;;;7824505;28;20170;-85
2023/12/20 18:55:25;;;;;;;9.87;3.30;;;5.60;99.90;;;;;;7808591;28;20203;-86
2023/12/20 18:59:12;;;;;;;7.70;3.33;;;5.70;99.90;;;;;;7823963;28;20189;-86
2023/12/20 19:02:58;;;;;;;7.67;3.20;;;5.70;99.90;;;;;;7821286;28;20214;-84
2023/12/20 19:06:44;;;;;;;4.33;2.70;;;5.70;99.90;;;;;;7838027;28;20198;-85
2023/12/20 19:10:29;;;;;;;6.00;3.07;;;5.70;99.90;;;;;;7822239;28;20175;-84
2023/12/20 19:14:15;;;;;;;6.80;2.60;;;5.50;99.90;;;;;;7827192;28;20189;-86
2023/12/20 19:18:01;;;;;;;10.23;5.40;;;5.70;99.90;;;;;;7830083;28;20207;-86
2023/12/20 19:21:46;;;;;;;6.93;3.27;;;5.60;99.90;;;;;;7825260;28;20244;-85
2023/12/20 19:25:33;;;;;;;6.83;4.13;;;5.50;99.90;;;;;;7842529;28;20194;-86
2023/12/20 19:29:18;;;;;;;5.40;3.90;;;5.40;99.90;;;;;;7837635;28;20194;-86
2023/12/20 19:33:04;;;;;;;7.47;3.27;;;5.40;99.90;;;;;;7814376;28;20178;-85
2023/12/20 19:36:50;;;;;;;5.10;3.10;;;5.40;99.90;;;;;;7824871;28;20214;-84
2023/12/20 19:40:37;;;;;;;6.00;3.70;;;5.40;99.90;;;;;;7816935;28;20265;-85
2023/12/20 19:44:22;;;;;;;5.20;3.40;;;5.40;99.90;;;;;;7810528;28;20171;-85
2023/12/20 19:48:08;;;;;;;5.47;3.20;;;5.40;99.90;;;;;;7824080;28;20218;-86
2023/12/20 19:51:54;;;;;;;7.80;3.60;;;5.50;99.90;;;;;;7828656;28;20185;-85
2023/12/20 19:55:40;;;;;;;5.53;3.17;;;5.40;99.90;;;;;;7823665;28;20275;-85